Celebrity Silhouette — 9HA2583 — position and weather

sailwx.info

Track history (hours):
 
Tides and Currents Weather Stations Pressure Air Temp Water Temp Dewpoint Dewpoint Depression Visibility Wind Speed Wind Dir Waves Ship Positions

Celebrity Silhouette

Last reported at 2018-Jul-22 03:00 UTC. Time now 2018-Jul-22 03:20 UTC.
Position N 51°23' E 002°57'.

Length 319 m; draft 8.6 m.

Type: Passenger vessel. MMSI: 248939000.

Date/timePositionNaut miles runAvg speedWind from/ knotsBaromVisibWave heightAir tempDewpointWater temp
2018-Jul-22 03:00N 51°23' E 002°57'815.3
2018-Jul-22 02:30N 51°22' E 002°45'4 8.5
2018-Jul-22 02:00N 51°22' E 002°38'714.4
2018-Jul-22 01:31N 51°21' E 002°27'714.5
2018-Jul-22 01:01N 51°18' E 002°17'815.1
2018-Jul-22 00:30N 51°14' E 002°07'815.9
2018-Jul-22 00:01N 51°10' E 001°56'917.3
2018-Jul-21 23:31N 51°05' E 001°44'917.6
2018-Jul-21 23:01N 50°59' E 001°34'917.8
2018-Jul-21 22:31N 50°52' E 001°26'917.7
2018-Jul-21 22:01N 50°44' E 001°21'5292.2
2018-Jul-21 22:00N 50°48' E 001°24'1327.5 290 / 19 19.9 18.4
2018-Jul-21 21:30N 50°37' E 001°11'918.0
2018-Jul-21 21:01N 50°32' E 001°00'1020.5
2018-Jul-21 20:31N 50°29' E 000°45'1020.5
2018-Jul-21 20:00N 50°27' E 000°29'1020.3
2018-Jul-21 19:30N 50°24' E 000°13'1020.4
2018-Jul-21 19:00N 50°22' W 000°02'4405.4
2018-Jul-21 19:00N 50°18' E 000°00'1327.5 300 / 101015.0 15.0 15.0
2018-Jul-21 18:31N 50°26' W 000°17'1121.1
2018-Jul-21 18:01N 50°31' W 000°31'1020.6
2018-Jul-21 17:31N 50°36' W 000°45'918.7
2018-Jul-21 17:00N 50°41' W 000°58'612.7
2018-Jul-21 16:31N 50°45' W 001°06'815.3
2018-Jul-21 16:01N 50°47' W 001°18'4 8.9
2018-Jul-21 15:31N 50°51' W 001°20'4 8.7
2018-Jul-21 15:00N 50°54' W 001°25'0 0.3
2018-Jul-21 14:29N 50°54' W 001°25'0 0.0
2018-Jul-21 13:59N 50°54' W 001°25'0 0.0
2018-Jul-21 13:29N 50°54' W 001°25'0 0.0
2018-Jul-21 12:59N 50°54' W 001°25'0 0.0
2018-Jul-21 12:29N 50°54' W 001°25'0 0.0
2018-Jul-21 12:00N 50°54' W 001°25'0 0.0
2018-Jul-21 11:28N 50°54' W 001°25'612.6
2018-Jul-21 11:00N 50°48' W 001°24'6226.3
2018-Jul-21 10:58N 50°54' W 001°25'0 0.0
2018-Jul-21 10:28N 50°54' W 001°25'0 0.0
2018-Jul-21 09:58N 50°54' W 001°25'0 0.0
2018-Jul-21 09:28N 50°54' W 001°25'0 0.0
2018-Jul-21 08:58N 50°54' W 001°25'0 0.0
2018-Jul-21 08:28N 50°54' W 001°25'0 0.0
2018-Jul-21 07:58N 50°54' W 001°25'0 0.0
2018-Jul-21 07:28N 50°54' W 001°25'0 0.0
2018-Jul-21 06:58N 50°54' W 001°25'0 0.0
2018-Jul-21 06:28N 50°54' W 001°25'0 0.0
2018-Jul-21 05:58N 50°54' W 001°25'0 0.0
2018-Jul-21 05:25N 50°54' W 001°25'0 0.0
2018-Jul-21 04:59N 50°54' W 001°25'0 0.0
2018-Jul-21 04:30N 50°54' W 001°25'2 3.2
2018-Jul-21 04:00N 50°53' W 001°23'4 9.0
2018-Jul-21 03:31N 50°50' W 001°18'4 7.8
2018-Jul-21 03:00N 50°46' W 001°15'715.0
2018-Jul-21 02:31N 50°44' W 001°04'714.0
2018-Jul-21 02:01N 50°40' W 000°55'612.8
2018-Jul-21 01:30N 50°38' W 000°45'815.1
2018-Jul-21 01:00N 50°36' W 000°34'815.2
2018-Jul-21 00:30N 50°35' W 000°22'816.2
2018-Jul-21 00:00N 50°33' W 000°10'7470.8
2018-Jul-21 00:00N 50°30' E 000°00'4 7.8 110 / 111014.027.0 17.2 17.3
2018-Jul-20 23:30N 50°33' E 000°03'816.6
2018-Jul-20 23:00N 50°35' E 000°16'918.1
2018-Jul-20 22:30N 50°37' E 000°30'918.2
2018-Jul-20 22:00N 50°42' E 000°42'4240.4
2018-Jul-20 22:00N 50°42' E 000°48'613.3 020 / 3 16.9 17.6
2018-Jul-20 21:30N 50°47' E 000°53'917.4
2018-Jul-20 21:00N 50°52' E 001°05'816.8
2018-Jul-20 20:30N 50°58' E 001°15'816.0
2018-Jul-20 20:00N 51°03' E 001°25'815.7
2018-Jul-20 19:30N 51°08' E 001°34'815.2
2018-Jul-20 19:00N 51°13' E 001°43'815.4
2018-Jul-20 18:30N 51°19' E 001°50'816.1
2018-Jul-20 18:00N 51°26' E 001°56'816.8
2018-Jul-20 17:30N 51°33' E 002°05'817.0
2018-Jul-20 17:01N 51°39' E 002°13'917.2
2018-Jul-20 16:30N 51°46' E 002°22'917.8
2018-Jul-20 16:01N 51°53' E 002°30'918.2
2018-Jul-20 15:30N 52°02' E 002°36'918.7
2018-Jul-20 15:01N 52°11' E 002°39'918.8
2018-Jul-20 14:30N 52°20' E 002°46'918.6
2018-Jul-20 14:00N 52°28' E 002°53'12737.9
2018-Jul-20 14:00N 52°18' E 002°42'2143.7 170 / 61015.027.0 19.7 17.7
2018-Jul-20 13:30N 52°36' E 002°60'918.1
2018-Jul-20 13:00N 52°44' E 003°07'917.6
2018-Jul-20 12:30N 52°52' E 003°13'917.2
2018-Jul-20 12:00N 53°00' E 003°18'816.9
2018-Jul-20 11:30N 53°08' E 003°22'816.7
2018-Jul-20 11:00N 53°16' E 003°26'816.4
2018-Jul-20 10:30N 53°24' E 003°29'816.2
2018-Jul-20 10:00N 53°32' E 003°33'8516.7
2018-Jul-20 10:00N 53°24' E 003°30'1633.9 120 / 10 17.3 17.8
2018-Jul-20 09:30N 53°40' E 003°37'816.0
2018-Jul-20 09:00N 53°46' E 003°46'917.1
2018-Jul-20 08:30N 53°51' E 003°57'917.4
2018-Jul-20 08:00N 53°57' E 004°09'917.8
2018-Jul-20 07:30N 54°02' E 004°21'917.7
2018-Jul-20 07:00N 54°09' E 004°31'917.8
2018-Jul-20 06:30N 54°16' E 004°39'1517.7
2018-Jul-20 05:40N 54°29' E 004°52'317.6
2018-Jul-20 05:29N 54°32' E 004°55'917.6
2018-Jul-20 04:59N 54°39' E 005°03'917.4
2018-Jul-20 04:29N 54°47' E 005°11'3617.4
2018-Jul-20 02:26N 55°17' E 005°44'1 3.1
2018-Jul-20 02:00N 55°18' E 005°42'3222.8 210 / 61018.027.0 17.2 19.2
2018-Jul-20 00:35N 55°45' E 006°14'317.2
2018-Jul-20 00:24N 55°47' E 006°17'5315.5
2018-Jul-19 21:00N 56°30' E 007°12'9019.0 290 / 29
2018-Jul-19 16:16N 57°31' E 009°13'618.3
2018-Jul-19 15:56N 57°33' E 009°23'818.8
2018-Jul-19 15:30N 57°37' E 009°37'919.0
2018-Jul-19 15:00N 57°40' E 009°53'7436.1
2018-Jul-19 15:00N 57°42' E 010°06'3 5.7 210 / 251016.027.0 18.1 18.9
2018-Jul-19 14:30N 57°44' E 010°09'1817.9
2018-Jul-19 13:30N 57°49' E 010°42'1019.3
2018-Jul-19 13:00N 57°43' E 010°57'1020.5
2018-Jul-19 12:30N 57°36' E 011°11'1020.3
2018-Jul-19 12:00N 57°29' E 011°25'1020.1
2018-Jul-19 11:30N 57°20' E 011°32'1020.3
2018-Jul-19 11:00N 57°10' E 011°38'1020.1
2018-Jul-19 10:30N 57°01' E 011°44'1017.6
2018-Jul-19 09:58N 56°52' E 011°50'716.2
2018-Jul-19 09:30N 56°45' E 011°54'816.9
2018-Jul-19 09:00N 56°37' E 011°47'3180.9
2018-Jul-19 09:00N 56°36' E 011°42'612.9 300 / 24 17.7 21.3
2018-Jul-19 08:30N 56°30' E 011°38'1316.9
2018-Jul-19 07:45N 56°19' E 011°26'1117.1
2018-Jul-19 07:08N 56°10' E 011°16'217.6
2018-Jul-19 07:00N 56°08' E 011°13'917.1
2018-Jul-19 06:29N 56°01' E 011°05'1417.6
2018-Jul-19 05:42N 55°50' E 010°50'1017.0
2018-Jul-19 05:05N 55°40' E 010°47'216.5
2018-Jul-19 04:58N 55°38' E 010°48'816.7
2018-Jul-19 04:28N 55°30' E 010°54'716.3
2018-Jul-19 04:00N 55°24' E 011°01'815.7
2018-Jul-19 03:30N 55°16' E 011°04'815.3
2018-Jul-19 03:00N 55°09' E 011°03'816.4
2018-Jul-19 02:30N 55°01' E 011°01'816.2
2018-Jul-19 02:00N 54°54' E 010°54'816.1
2018-Jul-19 01:30N 54°46' E 010°52'713.7
2018-Jul-19 01:00N 54°40' E 010°58'6491.7
2018-Jul-19 01:00N 54°42' E 010°48'1429.5 310 / 181018.027.0 17.4 20.1
2018-Jul-19 00:30N 54°36' E 011°10'816.9
2018-Jul-19 00:00N 54°32' E 011°24'816.6
2018-Jul-18 23:30N 54°29' E 011°36'916.2
2018-Jul-18 22:59N 54°24' E 011°48'816.2
2018-Jul-18 22:30N 54°18' E 011°57'611.7
2018-Jul-18 22:00N 54°13' E 012°03'5 9.0
2018-Jul-18 21:30N 54°09' E 012°07'0 0.0
2018-Jul-18 15:18N 54°09' E 012°07'0 0.0
2018-Jul-18 15:00N 54°09' E 012°07'3 3.0
2018-Jul-18 14:00N 54°06' E 012°06'3 2.3 280 / 201015.027.0 22.1 22.0
2018-Jul-18 12:41N 54°09' E 012°07'0 0.0
2018-Jul-18 12:24N 54°09' E 012°07'0 0.0
2018-Jul-18 11:58N 54°09' E 012°07'0 0.0
2018-Jul-18 10:21N 54°09' E 012°07'0 0.0
2018-Jul-18 09:57N 54°09' E 012°07'0 0.0
2018-Jul-18 07:58N 54°09' E 012°07'0 0.0
2018-Jul-18 07:30N 54°09' E 012°07'0 0.0
2018-Jul-18 06:31N 54°09' E 012°07'0 0.3
2018-Jul-18 06:27N 54°09' E 012°07'1 1.3
2018-Jul-18 05:59N 54°10' E 012°06'2 4.4
2018-Jul-18 05:30N 54°12' E 012°05'611.7
2018-Jul-18 05:00N 54°17' E 012°00'916.3
2018-Jul-18 04:29N 54°25' E 011°59'715.5
2018-Jul-18 04:00N 54°27' E 012°11'916.8
2018-Jul-18 03:29N 54°36' E 012°15'816.1
2018-Jul-18 03:00N 54°41' E 012°24'816.9
2018-Jul-18 02:30N 54°45' E 012°37'816.5
2018-Jul-18 02:00N 54°49' E 012°50'817.1
2018-Jul-18 01:31N 54°51' E 013°03'917.4
2018-Jul-18 01:00N 54°54' E 013°18'4314.1
2018-Jul-18 01:00N 54°54' E 013°24'611.6 310 / 271012.027.0 20.4 20.5
2018-Jul-18 00:26N 54°58' E 013°33'1317.0
2018-Jul-17 23:39N 55°02' E 013°56'317.6
2018-Jul-17 23:31N 55°03' E 013°60'917.4
2018-Jul-17 23:00N 55°09' E 014°11'918.0
2018-Jul-17 22:31N 55°16' E 014°20'918.1
2018-Jul-17 22:01N 55°23' E 014°30'917.6
2018-Jul-17 21:31N 55°28' E 014°43'917.6
2018-Jul-17 21:00N 55°33' E 014°56'5352.9
2018-Jul-17 21:00N 55°30' E 014°48'1429.1 330 / 23 21.0 20.9
2018-Jul-17 20:31N 55°38' E 015°09'917.3
2018-Jul-17 20:01N 55°42' E 015°22'917.0
2018-Jul-17 19:31N 55°46' E 015°36'1020.6
2018-Jul-17 19:01N 55°50' E 015°52'1020.8
2018-Jul-17 18:31N 55°56' E 016°08'1121.0
2018-Jul-17 18:00N 56°01' E 016°24'1021.1
2018-Jul-17 17:31N 56°06' E 016°40'1020.8
2018-Jul-17 17:01N 56°12' E 016°56'1020.7
2018-Jul-17 16:31N 56°18' E 017°11'1020.9
2018-Jul-17 16:01N 56°25' E 017°26'1121.1
2018-Jul-17 15:30N 56°31' E 017°42'1121.2
2018-Jul-17 15:00N 56°37' E 017°57'1221.0
2018-Jul-17 14:27N 56°45' E 018°13'714.8
2018-Jul-17 14:00N 56°48' E 018°24'4115.2 030 / 181011.027.0 22.5 20.9
2018-Jul-17 13:57N 56°52' E 018°28'6220.9
2018-Jul-17 10:58N 57°38' E 019°44'1121.2
2018-Jul-17 10:29N 57°47' E 019°55'1121.4
2018-Jul-17 09:57N 57°56' E 020°06'921.5
2018-Jul-17 09:31N 58°04' E 020°16'1121.5
2018-Jul-17 09:00N 58°13' E 020°28'9670.6
2018-Jul-17 09:00N 58°06' E 020°18'1940.1 060 / 19 24.4 19.7
2018-Jul-17 08:31N 58°22' E 020°39'1121.3
2018-Jul-17 08:01N 58°31' E 020°50'1121.2
2018-Jul-17 07:30N 58°40' E 021°01'1121.3
2018-Jul-17 07:01N 58°49' E 021°12'1121.4
2018-Jul-17 06:31N 58°58' E 021°23'1121.1
2018-Jul-17 06:01N 59°06' E 021°35'1121.4
2018-Jul-17 05:30N 59°13' E 021°51'1121.2
2018-Jul-17 05:01N 59°19' E 022°08'1121.1
2018-Jul-17 04:31N 59°26' E 022°24'1021.0
2018-Jul-17 04:01N 59°32' E 022°41'1121.1
2018-Jul-17 03:30N 59°35' E 023°01'1121.2
2018-Jul-17 03:00N 59°38' E 023°21'1121.4
2018-Jul-17 02:29N 59°41' E 023°42'1021.5
2018-Jul-17 02:00N 59°44' E 024°02'1121.6
2018-Jul-17 01:31N 59°46' E 024°23'1121.3
2018-Jul-17 01:01N 59°49' E 024°43'159.2
2018-Jul-17 01:00N 59°48' E 024°42'1223.7 010 / 151016.027.0 23.0 22.9
2018-Jul-17 00:30N 59°51' E 025°04'2121.1
2018-Jul-16 23:30N 59°56' E 025°45'1020.8
2018-Jul-16 23:01N 59°58' E 026°05'1020.9
2018-Jul-16 22:30N 60°00' E 026°26'1020.4
2018-Jul-16 22:01N 60°01' E 026°46'1019.9
2018-Jul-16 21:31N 60°00' E 027°06'1020.4
2018-Jul-16 21:00N 60°06' E 027°23'6436.0
2018-Jul-16 21:00N 60°06' E 027°36'611.7 030 / 7 26.8 22.8
2018-Jul-16 20:30N 60°11' E 027°41'1019.2
2018-Jul-16 20:01N 60°10' E 028°01'1020.1
2018-Jul-16 19:30N 60°07' E 028°20'1019.5
2018-Jul-16 19:01N 60°03' E 028°38'1524.3
2018-Jul-16 18:24N 60°02' E 029°07'1713.2
2018-Jul-16 17:07N 59°60' E 029°41'1 9.4
2018-Jul-16 16:57N 59°59' E 029°44'4 8.9
2018-Jul-16 16:30N 59°57' E 029°51'510.3
2018-Jul-16 16:00N 59°55' E 030°00'5 9.5
2018-Jul-16 15:30N 59°57' E 030°09'1 1.9
2018-Jul-16 15:00N 59°57' E 030°11'0 0.0
2018-Jul-16 14:30N 59°57' E 030°11'4 7.1
2018-Jul-16 14:00N 59°54' E 030°06'41091.9 040 / 101014.0 28.3 20.3
2018-Jul-16 13:59N 59°57' E 030°11'0 0.0
2018-Jul-16 13:27N 59°57' E 030°11'0 0.0
2018-Jul-16 13:00N 59°57' E 030°11'0 0.0
2018-Jul-16 12:26N 59°57' E 030°11'0 0.0
2018-Jul-16 12:00N 59°57' E 030°11'4262.1
2018-Jul-16 12:00N 59°54' E 030°06'4 7.4 040 / 141015.027.0 28.7 28.6
2018-Jul-16 11:30N 59°57' E 030°11'0 0.0
2018-Jul-16 11:00N 59°57' E 030°11'0 0.0
2018-Jul-16 10:26N 59°57' E 030°11'0 0.0
2018-Jul-16 09:59N 59°57' E 030°11'0 0.0
2018-Jul-16 09:25N 59°57' E 030°11'0 0.0
2018-Jul-16 09:00N 59°57' E 030°11'0 0.0
2018-Jul-16 08:28N 59°57' E 030°11'0 0.0
2018-Jul-16 07:59N 59°57' E 030°11'0 0.0
2018-Jul-16 07:28N 59°57' E 030°11'0 0.0
2018-Jul-16 06:59N 59°57' E 030°11'0 0.0
2018-Jul-16 06:25N 59°57' E 030°11'0 0.0
2018-Jul-16 06:00N 59°57' E 030°11'0 0.0
2018-Jul-16 05:30N 59°57' E 030°11'0 0.0
2018-Jul-16 04:59N 59°57' E 030°11'0 0.0
2018-Jul-16 04:23N 59°57' E 030°11'0 0.0
2018-Jul-16 03:56N 59°57' E 030°11'0 0.0
2018-Jul-16 03:29N 59°57' E 030°11'0 0.0
2018-Jul-16 02:59N 59°57' E 030°11'0 0.0
2018-Jul-16 02:23N 59°57' E 030°11'0 0.0
2018-Jul-16 01:59N 59°57' E 030°11'0 0.0
2018-Jul-16 01:25N 59°57' E 030°11'0 0.0
2018-Jul-16 00:54N 59°57' E 030°11'0 0.0
2018-Jul-16 00:22N 59°57' E 030°11'0 0.0
2018-Jul-15 23:56N 59°57' E 030°11'0 0.0
2018-Jul-15 23:30N 59°57' E 030°11'0 0.0
2018-Jul-15 22:58N 59°57' E 030°11'0 0.0
2018-Jul-15 22:30N 59°57' E 030°11'4 7.2
2018-Jul-15 22:00N 59°54' E 030°06'457.2 040 / 41014.027.0 22.4 19.7
2018-Jul-15 21:56N 59°57' E 030°11'0 0.0
2018-Jul-15 21:30N 59°57' E 030°11'0 0.0
2018-Jul-15 21:00N 59°57' E 030°11'0 0.0
2018-Jul-15 20:23N 59°57' E 030°11'0 0.0
2018-Jul-15 19:57N 59°57' E 030°11'0 0.0
2018-Jul-15 19:23N 59°57' E 030°11'0 0.0
2018-Jul-15 18:59N 59°57' E 030°11'0 0.0
2018-Jul-15 18:29N 59°57' E 030°11'0 0.0
2018-Jul-15 17:58N 59°57' E 030°11'0 0.0
2018-Jul-15 17:28N 59°57' E 030°11'0 0.0
2018-Jul-15 16:58N 59°57' E 030°11'0 0.0
2018-Jul-15 16:25N 59°57' E 030°11'0 0.0
2018-Jul-15 16:00N 59°57' E 030°11'0 0.0
2018-Jul-15 15:25N 59°57' E 030°11'0 0.0
2018-Jul-15 14:54N 59°57' E 030°11'0 0.0
2018-Jul-15 14:25N 59°57' E 030°11'0 0.0
2018-Jul-15 14:00N 59°57' E 030°11'0 0.0
2018-Jul-15 13:28N 59°57' E 030°11'0 0.0
2018-Jul-15 13:00N 59°57' E 030°11'0 0.0
2018-Jul-15 12:29N 59°57' E 030°11'4 7.4
2018-Jul-15 12:00N 59°54' E 030°06'433.3 270 / 71012.027.0 26.1 19.2
2018-Jul-15 11:53N 59°57' E 030°11'0 0.0
2018-Jul-15 11:29N 59°57' E 030°11'0 0.0
2018-Jul-15 10:54N 59°57' E 030°11'0 0.0
2018-Jul-15 10:29N 59°57' E 030°11'0 0.0
2018-Jul-15 09:56N 59°57' E 030°11'0 0.0
2018-Jul-15 09:29N 59°57' E 030°11'0 0.0
2018-Jul-15 08:59N 59°57' E 030°11'0 0.0
2018-Jul-15 08:29N 59°57' E 030°11'0 0.0
2018-Jul-15 07:55N 59°57' E 030°11'0 0.0
2018-Jul-15 07:30N 59°57' E 030°11'0 0.0
2018-Jul-15 06:58N 59°57' E 030°11'0 0.0
2018-Jul-15 06:25N 59°57' E 030°11'0 0.0
2018-Jul-15 05:59N 59°57' E 030°11'0 0.0
2018-Jul-15 05:30N 59°57' E 030°11'0 0.0
2018-Jul-15 04:58N 59°57' E 030°11'0 0.0
2018-Jul-15 04:24N 59°57' E 030°11'0 0.0
2018-Jul-15 03:59N 59°57' E 030°11'0 0.0
2018-Jul-15 03:28N 59°57' E 030°11'0 0.0
2018-Jul-15 03:00N 59°57' E 030°11'0 0.0
2018-Jul-15 02:25N 59°57' E 030°11'0 0.0
2018-Jul-15 01:58N 59°57' E 030°11'0 0.0
2018-Jul-15 01:25N 59°57' E 030°11'0 0.0
2018-Jul-15 00:58N 59°57' E 030°11'0 0.0
2018-Jul-15 00:30N 59°57' E 030°11'0 0.0
2018-Jul-15 00:00N 59°57' E 030°11'4256.9
2018-Jul-15 00:00N 59°54' E 030°06'4 7.4 060 / 41011.027.0 20.8 18.6
2018-Jul-14 23:30N 59°57' E 030°11'0 0.0
2018-Jul-14 23:00N 59°57' E 030°11'0 0.0
2018-Jul-14 22:28N 59°57' E 030°11'0 0.0
2018-Jul-14 22:00N 59°57' E 030°11'0 0.0
2018-Jul-14 21:28N 59°57' E 030°11'0 0.0
2018-Jul-14 21:00N 59°57' E 030°11'0 0.0
2018-Jul-14 20:27N 59°57' E 030°11'0 0.0
2018-Jul-14 19:54N 59°57' E 030°11'0 0.0
2018-Jul-14 19:29N 59°57' E 030°11'0 0.0
2018-Jul-14 18:55N 59°57' E 030°11'0 0.0
2018-Jul-14 18:28N 59°57' E 030°11'0 0.0
2018-Jul-14 18:00N 59°57' E 030°11'0 0.0
2018-Jul-14 17:29N 59°57' E 030°11'4 7.5
2018-Jul-14 17:00N 59°54' E 030°06'445.5
2018-Jul-14 16:55N 59°57' E 030°11'0 0.0
2018-Jul-14 16:29N 59°57' E 030°11'0 0.0
2018-Jul-14 15:57N 59°57' E 030°11'0 0.0
2018-Jul-14 15:30N 59°57' E 030°11'0 0.0
2018-Jul-14 14:58N 59°57' E 030°11'0 0.0
2018-Jul-14 14:30N 59°57' E 030°11'0 0.0
2018-Jul-14 13:30N 59°57' E 030°11'0 0.0
2018-Jul-14 13:00N 59°57' E 030°11'0 0.0
2018-Jul-14 12:29N 59°57' E 030°11'0 0.0
2018-Jul-14 11:58N 59°57' E 030°11'0 0.0
2018-Jul-14 11:30N 59°57' E 030°11'0 0.0
2018-Jul-14 10:59N 59°57' E 030°11'0 0.0
2018-Jul-14 10:30N 59°57' E 030°11'0 0.0
2018-Jul-14 10:00N 59°57' E 030°11'0 0.0
2018-Jul-14 09:26N 59°57' E 030°11'0 0.0
2018-Jul-14 09:00N 59°57' E 030°11'0 0.0
2018-Jul-14 08:24N 59°57' E 030°11'0 0.0
2018-Jul-14 07:59N 59°57' E 030°11'0 0.0
2018-Jul-14 07:28N 59°57' E 030°11'0 0.0
2018-Jul-14 07:00N 59°57' E 030°11'0 0.0
2018-Jul-14 06:28N 59°57' E 030°11'0 0.0
2018-Jul-14 05:53N 59°57' E 030°11'0 0.0
2018-Jul-14 05:28N 59°57' E 030°11'0 0.0
2018-Jul-14 05:01N 59°57' E 030°11'0 0.0
2018-Jul-14 04:28N 59°57' E 030°11'0 0.0
2018-Jul-14 03:56N 59°57' E 030°11'0 0.0
2018-Jul-14 03:30N 59°57' E 030°11'1 2.3
2018-Jul-14 03:00N 59°57' E 030°09'4 9.0
2018-Jul-14 02:30N 59°55' E 030°00'5 9.7
2018-Jul-14 02:01N 59°57' E 029°51'5 8.9
2018-Jul-14 01:26N 59°59' E 029°42'712.5
2018-Jul-14 00:54N 60°01' E 029°30'4 9.5
2018-Jul-14 00:30N 60°01' E 029°22'816.6
2018-Jul-14 00:00N 60°01' E 029°05'917.1
2018-Jul-13 23:30N 60°02' E 028°48'917.0
2018-Jul-13 23:00N 60°02' E 028°31'816.6
2018-Jul-13 22:30N 60°07' E 028°17'817.0
2018-Jul-13 22:00N 60°09' E 028°01'7519.7
2018-Jul-13 22:00N 60°06' E 027°48'5 9.7 100 / 131013.027.0 22.7 21.3
2018-Jul-13 21:30N 60°10' E 027°44'917.3
2018-Jul-13 21:00N 60°06' E 027°29'917.4
2018-Jul-13 20:30N 60°01' E 027°14'4 8.2
2018-Jul-13 20:00N 60°00' E 027°06'4549.2 020 / 10 22.3 20.6
2018-Jul-13 19:59N 59°58' E 026°58'817.3
2018-Jul-13 19:31N 59°59' E 026°42'917.2
2018-Jul-13 19:00N 59°58' E 026°25'917.0
2018-Jul-13 18:28N 59°55' E 026°07'817.2
2018-Jul-13 18:00N 59°53' E 025°52'817.1
2018-Jul-13 17:31N 59°51' E 025°36'916.9
2018-Jul-13 17:00N 59°49' E 025°19'816.8
2018-Jul-13 16:31N 59°47' E 025°03'816.2
2018-Jul-13 16:00N 59°43' E 024°50'816.2
2018-Jul-13 15:31N 59°36' E 024°41'815.3
2018-Jul-13 15:00N 59°28' E 024°46'1 1.3
2018-Jul-13 14:00N 59°27' E 024°46'0 0.0
2018-Jul-13 13:30N 59°27' E 024°46'0 0.0
2018-Jul-13 13:00N 59°27' E 024°46'0 0.0
2018-Jul-13 12:30N 59°27' E 024°46'0 0.0
2018-Jul-13 12:00N 59°27' E 024°46'0 0.0
2018-Jul-13 11:30N 59°27' E 024°46'0 0.0
2018-Jul-13 11:00N 59°27' E 024°46'0 0.0
2018-Jul-13 10:30N 59°27' E 024°46'0 0.0
2018-Jul-13 10:00N 59°27' E 024°46'4248.0
2018-Jul-13 10:00N 59°24' E 024°42'4 7.7 110 / 61014.027.0 21.4 15.4
2018-Jul-13 09:30N 59°27' E 024°46'0 0.0
2018-Jul-13 09:00N 59°27' E 024°46'0 0.0
2018-Jul-13 08:30N 59°27' E 024°46'0 0.0
2018-Jul-13 08:00N 59°27' E 024°46'0 0.0
2018-Jul-13 07:30N 59°27' E 024°46'0 0.3
2018-Jul-13 07:00N 59°27' E 024°46'2 4.0
2018-Jul-13 06:31N 59°29' E 024°45'611.1
2018-Jul-13 06:00N 59°30' E 024°34'715.0
2018-Jul-13 05:31N 59°30' E 024°19'915.9
2018-Jul-13 04:58N 59°29' E 024°03'816.1
2018-Jul-13 04:29N 59°29' E 023°47'816.3
2018-Jul-13 04:00N 59°28' E 023°32'816.2
2018-Jul-13 03:30N 59°28' E 023°16'816.1
2018-Jul-13 03:00N 59°27' E 023°00'816.4
2018-Jul-13 02:30N 59°25' E 022°44'915.2
2018-Jul-13 01:55N 59°21' E 022°28'616.1
2018-Jul-13 01:30N 59°20' E 022°16'816.5
2018-Jul-13 01:01N 59°20' E 021°60'816.3
2018-Jul-13 00:30N 59°19' E 021°44'917.3
2018-Jul-13 00:01N 59°16' E 021°28'917.6
2018-Jul-12 23:30N 59°14' E 021°11'917.7
2018-Jul-12 23:01N 59°11' E 020°55'6356.6
2018-Jul-12 23:00N 59°06' E 020°48'2814.2 350 / 201016.027.0 18.0 17.0
2018-Jul-12 21:00N 59°00' E 019°54'1121.2 030 / 14 17.5 18.2
2018-Jul-12 20:29N 58°57' E 019°34'817.3
2018-Jul-12 19:59N 58°54' E 019°18'817.1
2018-Jul-12 19:30N 58°51' E 019°03'917.0
2018-Jul-12 18:59N 58°49' E 018°47'1116.9
2018-Jul-12 18:21N 58°45' E 018°27'616.4
2018-Jul-12 18:00N 58°44' E 018°16'816.3
2018-Jul-12 17:31N 58°48' E 018°03'612.1
2018-Jul-12 17:00N 58°54' E 018°01'2 3.2
2018-Jul-12 16:29N 58°55' E 017°58'0 0.0
2018-Jul-12 15:59N 58°55' E 017°58'0 0.0
2018-Jul-12 15:29N 58°55' E 017°58'0 0.0
2018-Jul-12 14:59N 58°55' E 017°58'0 0.0
2018-Jul-12 14:29N 58°55' E 017°58'0 0.0
2018-Jul-12 14:00N 58°55' E 017°58'0 0.0
2018-Jul-12 13:29N 58°55' E 017°58'0 0.0
2018-Jul-12 13:00N 58°55' E 017°58'2124.3
2018-Jul-12 13:00N 58°54' E 017°54'2 4.1 070 / 71017.027.0 20.1 19.0
2018-Jul-12 12:30N 58°55' E 017°58'0 0.0
2018-Jul-12 12:00N 58°55' E 017°58'0 0.0
2018-Jul-12 11:30N 58°55' E 017°58'0 0.0
2018-Jul-12 11:00N 58°55' E 017°58'0 0.0
2018-Jul-12 10:30N 58°55' E 017°58'0 0.0
2018-Jul-12 10:00N 58°55' E 017°58'0 0.0
2018-Jul-12 09:30N 58°55' E 017°58'0 0.0
2018-Jul-12 09:00N 58°55' E 017°58'0 0.0
2018-Jul-12 08:30N 58°55' E 017°58'0 0.0
2018-Jul-12 08:00N 58°55' E 017°58'0 0.0
2018-Jul-12 07:30N 58°55' E 017°58'0 0.0
2018-Jul-12 07:00N 58°55' E 017°58'0 0.0
2018-Jul-12 06:30N 58°55' E 017°58'0 0.0
2018-Jul-12 06:00N 58°55' E 017°58'0 0.0
2018-Jul-12 05:30N 58°55' E 017°58'0 0.0
2018-Jul-12 05:00N 58°55' E 017°58'0 0.0
2018-Jul-12 04:30N 58°55' E 017°58'0 0.0
2018-Jul-12 04:00N 58°55' E 017°58'1 1.9
2018-Jul-12 03:30N 58°55' E 017°59'510.1
2018-Jul-12 03:00N 58°50' E 018°04'  
Track history (hours):
 
Tides and Currents Weather Stations Pressure Air Temp Water Temp Dewpoint Dewpoint Depression Visibility Wind Speed Wind Dir Waves Ship Positions

Celebrity Silhouette

Last reported at 2018-Jul-22 03:00 UTC. Time now 2018-Jul-22 03:20 UTC.
Position N 51°23' E 002°57'.

Length 319 m; draft 8.6 m.

Type: Passenger vessel. MMSI: 248939000.

Date/timePositionNaut miles runAvg speedWind from/ knotsBaromVisibWave heightAir tempDewpointWater temp
2018-Jul-22 03:00N 51°23' E 002°57'815.3
2018-Jul-22 02:30N 51°22' E 002°45'4 8.5
2018-Jul-22 02:00N 51°22' E 002°38'714.4
2018-Jul-22 01:31N 51°21' E 002°27'714.5
2018-Jul-22 01:01N 51°18' E 002°17'815.1
2018-Jul-22 00:30N 51°14' E 002°07'815.9
2018-Jul-22 00:01N 51°10' E 001°56'917.3
2018-Jul-21 23:31N 51°05' E 001°44'917.6
2018-Jul-21 23:01N 50°59' E 001°34'917.8
2018-Jul-21 22:31N 50°52' E 001°26'917.7
2018-Jul-21 22:01N 50°44' E 001°21'5292.2
2018-Jul-21 22:00N 50°48' E 001°24'1327.5 290 / 19 19.9 18.4
2018-Jul-21 21:30N 50°37' E 001°11'918.0
2018-Jul-21 21:01N 50°32' E 001°00'1020.5
2018-Jul-21 20:31N 50°29' E 000°45'1020.5
2018-Jul-21 20:00N 50°27' E 000°29'1020.3
2018-Jul-21 19:30N 50°24' E 000°13'1020.4
2018-Jul-21 19:00N 50°22' W 000°02'4405.4
2018-Jul-21 19:00N 50°18' E 000°00'1327.5 300 / 101015.0 15.0 15.0
2018-Jul-21 18:31N 50°26' W 000°17'1121.1
2018-Jul-21 18:01N 50°31' W 000°31'1020.6
2018-Jul-21 17:31N 50°36' W 000°45'918.7
2018-Jul-21 17:00N 50°41' W 000°58'612.7
2018-Jul-21 16:31N 50°45' W 001°06'815.3
2018-Jul-21 16:01N 50°47' W 001°18'4 8.9
2018-Jul-21 15:31N 50°51' W 001°20'4 8.7
2018-Jul-21 15:00N 50°54' W 001°25'0 0.3
2018-Jul-21 14:29N 50°54' W 001°25'0 0.0
2018-Jul-21 13:59N 50°54' W 001°25'0 0.0
2018-Jul-21 13:29N 50°54' W 001°25'0 0.0
2018-Jul-21 12:59N 50°54' W 001°25'0 0.0
2018-Jul-21 12:29N 50°54' W 001°25'0 0.0
2018-Jul-21 12:00N 50°54' W 001°25'0 0.0
2018-Jul-21 11:28N 50°54' W 001°25'612.6
2018-Jul-21 11:00N 50°48' W 001°24'6226.3
2018-Jul-21 10:58N 50°54' W 001°25'0 0.0
2018-Jul-21 10:28N 50°54' W 001°25'0 0.0
2018-Jul-21 09:58N 50°54' W 001°25'0 0.0
2018-Jul-21 09:28N 50°54' W 001°25'0 0.0
2018-Jul-21 08:58N 50°54' W 001°25'0 0.0
2018-Jul-21 08:28N 50°54' W 001°25'0 0.0
2018-Jul-21 07:58N 50°54' W 001°25'0 0.0
2018-Jul-21 07:28N 50°54' W 001°25'0 0.0
2018-Jul-21 06:58N 50°54' W 001°25'0 0.0
2018-Jul-21 06:28N 50°54' W 001°25'0 0.0
2018-Jul-21 05:58N 50°54' W 001°25'0 0.0
2018-Jul-21 05:25N 50°54' W 001°25'0 0.0
2018-Jul-21 04:59N 50°54' W 001°25'0 0.0
2018-Jul-21 04:30N 50°54' W 001°25'2 3.2
2018-Jul-21 04:00N 50°53' W 001°23'4 9.0
2018-Jul-21 03:31N 50°50' W 001°18'4 7.8
2018-Jul-21 03:00N 50°46' W 001°15'715.0
2018-Jul-21 02:31N 50°44' W 001°04'714.0
2018-Jul-21 02:01N 50°40' W 000°55'612.8
2018-Jul-21 01:30N 50°38' W 000°45'815.1
2018-Jul-21 01:00N 50°36' W 000°34'815.2
2018-Jul-21 00:30N 50°35' W 000°22'816.2
2018-Jul-21 00:00N 50°33' W 000°10'7470.8
2018-Jul-21 00:00N 50°30' E 000°00'4 7.8 110 / 111014.027.0 17.2 17.3
2018-Jul-20 23:30N 50°33' E 000°03'816.6
2018-Jul-20 23:00N 50°35' E 000°16'918.1
2018-Jul-20 22:30N 50°37' E 000°30'918.2
2018-Jul-20 22:00N 50°42' E 000°42'4240.4
2018-Jul-20 22:00N 50°42' E 000°48'613.3 020 / 3 16.9 17.6
2018-Jul-20 21:30N 50°47' E 000°53'917.4
2018-Jul-20 21:00N 50°52' E 001°05'816.8
2018-Jul-20 20:30N 50°58' E 001°15'816.0
2018-Jul-20 20:00N 51°03' E 001°25'815.7
2018-Jul-20 19:30N 51°08' E 001°34'815.2
2018-Jul-20 19:00N 51°13' E 001°43'815.4
2018-Jul-20 18:30N 51°19' E 001°50'816.1
2018-Jul-20 18:00N 51°26' E 001°56'816.8
2018-Jul-20 17:30N 51°33' E 002°05'817.0
2018-Jul-20 17:01N 51°39' E 002°13'917.2
2018-Jul-20 16:30N 51°46' E 002°22'917.8
2018-Jul-20 16:01N 51°53' E 002°30'918.2
2018-Jul-20 15:30N 52°02' E 002°36'918.7
2018-Jul-20 15:01N 52°11' E 002°39'918.8
2018-Jul-20 14:30N 52°20' E 002°46'918.6
2018-Jul-20 14:00N 52°28' E 002°53'12737.9
2018-Jul-20 14:00N 52°18' E 002°42'2143.7 170 / 61015.027.0 19.7 17.7
2018-Jul-20 13:30N 52°36' E 002°60'918.1
2018-Jul-20 13:00N 52°44' E 003°07'917.6
2018-Jul-20 12:30N 52°52' E 003°13'917.2
2018-Jul-20 12:00N 53°00' E 003°18'816.9
2018-Jul-20 11:30N 53°08' E 003°22'816.7
2018-Jul-20 11:00N 53°16' E 003°26'816.4
2018-Jul-20 10:30N 53°24' E 003°29'816.2
2018-Jul-20 10:00N 53°32' E 003°33'8516.7
2018-Jul-20 10:00N 53°24' E 003°30'1633.9 120 / 10 17.3 17.8
2018-Jul-20 09:30N 53°40' E 003°37'816.0
2018-Jul-20 09:00N 53°46' E 003°46'917.1
2018-Jul-20 08:30N 53°51' E 003°57'917.4
2018-Jul-20 08:00N 53°57' E 004°09'917.8
2018-Jul-20 07:30N 54°02' E 004°21'917.7
2018-Jul-20 07:00N 54°09' E 004°31'917.8
2018-Jul-20 06:30N 54°16' E 004°39'1517.7
2018-Jul-20 05:40N 54°29' E 004°52'317.6
2018-Jul-20 05:29N 54°32' E 004°55'917.6
2018-Jul-20 04:59N 54°39' E 005°03'917.4
2018-Jul-20 04:29N 54°47' E 005°11'3617.4
2018-Jul-20 02:26N 55°17' E 005°44'1 3.1
2018-Jul-20 02:00N 55°18' E 005°42'3222.8 210 / 61018.027.0 17.2 19.2
2018-Jul-20 00:35N 55°45' E 006°14'317.2
2018-Jul-20 00:24N 55°47' E 006°17'5315.5
2018-Jul-19 21:00N 56°30' E 007°12'9019.0 290 / 29
2018-Jul-19 16:16N 57°31' E 009°13'618.3
2018-Jul-19 15:56N 57°33' E 009°23'818.8
2018-Jul-19 15:30N 57°37' E 009°37'919.0
2018-Jul-19 15:00N 57°40' E 009°53'7436.1
2018-Jul-19 15:00N 57°42' E 010°06'3 5.7 210 / 251016.027.0 18.1 18.9
2018-Jul-19 14:30N 57°44' E 010°09'1817.9
2018-Jul-19 13:30N 57°49' E 010°42'1019.3
2018-Jul-19 13:00N 57°43' E 010°57'1020.5
2018-Jul-19 12:30N 57°36' E 011°11'1020.3
2018-Jul-19 12:00N 57°29' E 011°25'1020.1
2018-Jul-19 11:30N 57°20' E 011°32'1020.3
2018-Jul-19 11:00N 57°10' E 011°38'1020.1
2018-Jul-19 10:30N 57°01' E 011°44'1017.6
2018-Jul-19 09:58N 56°52' E 011°50'716.2
2018-Jul-19 09:30N 56°45' E 011°54'816.9
2018-Jul-19 09:00N 56°37' E 011°47'3180.9
2018-Jul-19 09:00N 56°36' E 011°42'612.9 300 / 24 17.7 21.3
2018-Jul-19 08:30N 56°30' E 011°38'1316.9
2018-Jul-19 07:45N 56°19' E 011°26'1117.1
2018-Jul-19 07:08N 56°10' E 011°16'217.6
2018-Jul-19 07:00N 56°08' E 011°13'917.1
2018-Jul-19 06:29N 56°01' E 011°05'1417.6
2018-Jul-19 05:42N 55°50' E 010°50'1017.0
2018-Jul-19 05:05N 55°40' E 010°47'216.5
2018-Jul-19 04:58N 55°38' E 010°48'816.7
2018-Jul-19 04:28N 55°30' E 010°54'716.3
2018-Jul-19 04:00N 55°24' E 011°01'815.7
2018-Jul-19 03:30N 55°16' E 011°04'815.3
2018-Jul-19 03:00N 55°09' E 011°03'816.4
2018-Jul-19 02:30N 55°01' E 011°01'816.2
2018-Jul-19 02:00N 54°54' E 010°54'816.1
2018-Jul-19 01:30N 54°46' E 010°52'713.7
2018-Jul-19 01:00N 54°40' E 010°58'6491.7
2018-Jul-19 01:00N 54°42' E 010°48'1429.5 310 / 181018.027.0 17.4 20.1
2018-Jul-19 00:30N 54°36' E 011°10'816.9
2018-Jul-19 00:00N 54°32' E 011°24'816.6
2018-Jul-18 23:30N 54°29' E 011°36'916.2
2018-Jul-18 22:59N 54°24' E 011°48'816.2
2018-Jul-18 22:30N 54°18' E 011°57'611.7
2018-Jul-18 22:00N 54°13' E 012°03'5 9.0
2018-Jul-18 21:30N 54°09' E 012°07'0 0.0
2018-Jul-18 15:18N 54°09' E 012°07'0 0.0
2018-Jul-18 15:00N 54°09' E 012°07'3 3.0
2018-Jul-18 14:00N 54°06' E 012°06'3 2.3 280 / 201015.027.0 22.1 22.0
2018-Jul-18 12:41N 54°09' E 012°07'0 0.0
2018-Jul-18 12:24N 54°09' E 012°07'0 0.0
2018-Jul-18 11:58N 54°09' E 012°07'0 0.0
2018-Jul-18 10:21N 54°09' E 012°07'0 0.0
2018-Jul-18 09:57N 54°09' E 012°07'0 0.0
2018-Jul-18 07:58N 54°09' E 012°07'0 0.0
2018-Jul-18 07:30N 54°09' E 012°07'0 0.0
2018-Jul-18 06:31N 54°09' E 012°07'0 0.3
2018-Jul-18 06:27N 54°09' E 012°07'1 1.3
2018-Jul-18 05:59N 54°10' E 012°06'2 4.4
2018-Jul-18 05:30N 54°12' E 012°05'611.7
2018-Jul-18 05:00N 54°17' E 012°00'916.3
2018-Jul-18 04:29N 54°25' E 011°59'715.5
2018-Jul-18 04:00N 54°27' E 012°11'916.8
2018-Jul-18 03:29N 54°36' E 012°15'816.1
2018-Jul-18 03:00N 54°41' E 012°24'816.9
2018-Jul-18 02:30N 54°45' E 012°37'816.5
2018-Jul-18 02:00N 54°49' E 012°50'817.1
2018-Jul-18 01:31N 54°51' E 013°03'917.4
2018-Jul-18 01:00N 54°54' E 013°18'4314.1
2018-Jul-18 01:00N 54°54' E 013°24'611.6 310 / 271012.027.0 20.4 20.5
2018-Jul-18 00:26N 54°58' E 013°33'1317.0
2018-Jul-17 23:39N 55°02' E 013°56'317.6
2018-Jul-17 23:31N 55°03' E 013°60'917.4
2018-Jul-17 23:00N 55°09' E 014°11'918.0
2018-Jul-17 22:31N 55°16' E 014°20'918.1
2018-Jul-17 22:01N 55°23' E 014°30'917.6
2018-Jul-17 21:31N 55°28' E 014°43'917.6
2018-Jul-17 21:00N 55°33' E 014°56'5352.9
2018-Jul-17 21:00N 55°30' E 014°48'1429.1 330 / 23 21.0 20.9
2018-Jul-17 20:31N 55°38' E 015°09'917.3
2018-Jul-17 20:01N 55°42' E 015°22'917.0
2018-Jul-17 19:31N 55°46' E 015°36'1020.6
2018-Jul-17 19:01N 55°50' E 015°52'1020.8
2018-Jul-17 18:31N 55°56' E 016°08'1121.0
2018-Jul-17 18:00N 56°01' E 016°24'1021.1
2018-Jul-17 17:31N 56°06' E 016°40'1020.8
2018-Jul-17 17:01N 56°12' E 016°56'1020.7
2018-Jul-17 16:31N 56°18' E 017°11'1020.9
2018-Jul-17 16:01N 56°25' E 017°26'1121.1
2018-Jul-17 15:30N 56°31' E 017°42'1121.2
2018-Jul-17 15:00N 56°37' E 017°57'1221.0
2018-Jul-17 14:27N 56°45' E 018°13'714.8
2018-Jul-17 14:00N 56°48' E 018°24'4115.2 030 / 181011.027.0 22.5 20.9
2018-Jul-17 13:57N 56°52' E 018°28'6220.9
2018-Jul-17 10:58N 57°38' E 019°44'1121.2
2018-Jul-17 10:29N 57°47' E 019°55'1121.4
2018-Jul-17 09:57N 57°56' E 020°06'921.5
2018-Jul-17 09:31N 58°04' E 020°16'1121.5
2018-Jul-17 09:00N 58°13' E 020°28'9670.6
2018-Jul-17 09:00N 58°06' E 020°18'1940.1 060 / 19 24.4 19.7
2018-Jul-17 08:31N 58°22' E 020°39'1121.3
2018-Jul-17 08:01N 58°31' E 020°50'1121.2
2018-Jul-17 07:30N 58°40' E 021°01'1121.3
2018-Jul-17 07:01N 58°49' E 021°12'1121.4
2018-Jul-17 06:31N 58°58' E 021°23'1121.1
2018-Jul-17 06:01N 59°06' E 021°35'1121.4
2018-Jul-17 05:30N 59°13' E 021°51'1121.2
2018-Jul-17 05:01N 59°19' E 022°08'1121.1
2018-Jul-17 04:31N 59°26' E 022°24'1021.0
2018-Jul-17 04:01N 59°32' E 022°41'1121.1
2018-Jul-17 03:30N 59°35' E 023°01'1121.2
2018-Jul-17 03:00N 59°38' E 023°21'1121.4
2018-Jul-17 02:29N 59°41' E 023°42'1021.5
2018-Jul-17 02:00N 59°44' E 024°02'1121.6
2018-Jul-17 01:31N 59°46' E 024°23'1121.3
2018-Jul-17 01:01N 59°49' E 024°43'159.2
2018-Jul-17 01:00N 59°48' E 024°42'1223.7 010 / 151016.027.0 23.0 22.9
2018-Jul-17 00:30N 59°51' E 025°04'2121.1
2018-Jul-16 23:30N 59°56' E 025°45'1020.8
2018-Jul-16 23:01N 59°58' E 026°05'1020.9
2018-Jul-16 22:30N 60°00' E 026°26'1020.4
2018-Jul-16 22:01N 60°01' E 026°46'1019.9
2018-Jul-16 21:31N 60°00' E 027°06'1020.4
2018-Jul-16 21:00N 60°06' E 027°23'6436.0
2018-Jul-16 21:00N 60°06' E 027°36'611.7 030 / 7 26.8 22.8
2018-Jul-16 20:30N 60°11' E 027°41'1019.2
2018-Jul-16 20:01N 60°10' E 028°01'1020.1
2018-Jul-16 19:30N 60°07' E 028°20'1019.5
2018-Jul-16 19:01N 60°03' E 028°38'1524.3
2018-Jul-16 18:24N 60°02' E 029°07'1713.2
2018-Jul-16 17:07N 59°60' E 029°41'1 9.4
2018-Jul-16 16:57N 59°59' E 029°44'4 8.9
2018-Jul-16 16:30N 59°57' E 029°51'510.3
2018-Jul-16 16:00N 59°55' E 030°00'5 9.5
2018-Jul-16 15:30N 59°57' E 030°09'1 1.9
2018-Jul-16 15:00N 59°57' E 030°11'0 0.0
2018-Jul-16 14:30N 59°57' E 030°11'4 7.1
2018-Jul-16 14:00N 59°54' E 030°06'41091.9 040 / 101014.0 28.3 20.3
2018-Jul-16 13:59N 59°57' E 030°11'0 0.0
2018-Jul-16 13:27N 59°57' E 030°11'0 0.0
2018-Jul-16 13:00N 59°57' E 030°11'0 0.0
2018-Jul-16 12:26N 59°57' E 030°11'0 0.0
2018-Jul-16 12:00N 59°57' E 030°11'4262.1
2018-Jul-16 12:00N 59°54' E 030°06'4 7.4 040 / 141015.027.0 28.7 28.6
2018-Jul-16 11:30N 59°57' E 030°11'0 0.0
2018-Jul-16 11:00N 59°57' E 030°11'0 0.0
2018-Jul-16 10:26N 59°57' E 030°11'0 0.0
2018-Jul-16 09:59N 59°57' E 030°11'0 0.0
2018-Jul-16 09:25N 59°57' E 030°11'0 0.0
2018-Jul-16 09:00N 59°57' E 030°11'0 0.0
2018-Jul-16 08:28N 59°57' E 030°11'0 0.0
2018-Jul-16 07:59N 59°57' E 030°11'0 0.0
2018-Jul-16 07:28N 59°57' E 030°11'0 0.0
2018-Jul-16 06:59N 59°57' E 030°11'0 0.0
2018-Jul-16 06:25N 59°57' E 030°11'0 0.0
2018-Jul-16 06:00N 59°57' E 030°11'0 0.0
2018-Jul-16 05:30N 59°57' E 030°11'0 0.0
2018-Jul-16 04:59N 59°57' E 030°11'0 0.0
2018-Jul-16 04:23N 59°57' E 030°11'0 0.0
2018-Jul-16 03:56N 59°57' E 030°11'0 0.0
2018-Jul-16 03:29N 59°57' E 030°11'0 0.0
2018-Jul-16 02:59N 59°57' E 030°11'0 0.0
2018-Jul-16 02:23N 59°57' E 030°11'0 0.0
2018-Jul-16 01:59N 59°57' E 030°11'0 0.0
2018-Jul-16 01:25N 59°57' E 030°11'0 0.0
2018-Jul-16 00:54N 59°57' E 030°11'0 0.0
2018-Jul-16 00:22N 59°57' E 030°11'0 0.0
2018-Jul-15 23:56N 59°57' E 030°11'0 0.0
2018-Jul-15 23:30N 59°57' E 030°11'0 0.0
2018-Jul-15 22:58N 59°57' E 030°11'0 0.0
2018-Jul-15 22:30N 59°57' E 030°11'4 7.2
2018-Jul-15 22:00N 59°54' E 030°06'457.2 040 / 41014.027.0 22.4 19.7
2018-Jul-15 21:56N 59°57' E 030°11'0 0.0
2018-Jul-15 21:30N 59°57' E 030°11'0 0.0
2018-Jul-15 21:00N 59°57' E 030°11'0 0.0
2018-Jul-15 20:23N 59°57' E 030°11'0 0.0
2018-Jul-15 19:57N 59°57' E 030°11'0 0.0
2018-Jul-15 19:23N 59°57' E 030°11'0 0.0
2018-Jul-15 18:59N 59°57' E 030°11'0 0.0
2018-Jul-15 18:29N 59°57' E 030°11'0 0.0
2018-Jul-15 17:58N 59°57' E 030°11'0 0.0
2018-Jul-15 17:28N 59°57' E 030°11'0 0.0
2018-Jul-15 16:58N 59°57' E 030°11'0 0.0
2018-Jul-15 16:25N 59°57' E 030°11'0 0.0
2018-Jul-15 16:00N 59°57' E 030°11'0 0.0
2018-Jul-15 15:25N 59°57' E 030°11'0 0.0
2018-Jul-15 14:54N 59°57' E 030°11'0 0.0
2018-Jul-15 14:25N 59°57' E 030°11'0 0.0
2018-Jul-15 14:00N 59°57' E 030°11'0 0.0
2018-Jul-15 13:28N 59°57' E 030°11'0 0.0
2018-Jul-15 13:00N 59°57' E 030°11'0 0.0
2018-Jul-15 12:29N 59°57' E 030°11'4 7.4
2018-Jul-15 12:00N 59°54' E 030°06'433.3 270 / 71012.027.0 26.1 19.2
2018-Jul-15 11:53N 59°57' E 030°11'0 0.0
2018-Jul-15 11:29N 59°57' E 030°11'0 0.0
2018-Jul-15 10:54N 59°57' E 030°11'0 0.0
2018-Jul-15 10:29N 59°57' E 030°11'0 0.0
2018-Jul-15 09:56N 59°57' E 030°11'0 0.0
2018-Jul-15 09:29N 59°57' E 030°11'0 0.0
2018-Jul-15 08:59N 59°57' E 030°11'0 0.0
2018-Jul-15 08:29N 59°57' E 030°11'0 0.0
2018-Jul-15 07:55N 59°57' E 030°11'0 0.0
2018-Jul-15 07:30N 59°57' E 030°11'0 0.0
2018-Jul-15 06:58N 59°57' E 030°11'0 0.0
2018-Jul-15 06:25N 59°57' E 030°11'0 0.0
2018-Jul-15 05:59N 59°57' E 030°11'0 0.0
2018-Jul-15 05:30N 59°57' E 030°11'0 0.0
2018-Jul-15 04:58N 59°57' E 030°11'0 0.0
2018-Jul-15 04:24N 59°57' E 030°11'0 0.0
2018-Jul-15 03:59N 59°57' E 030°11'0 0.0
2018-Jul-15 03:28N 59°57' E 030°11'0 0.0
2018-Jul-15 03:00N 59°57' E 030°11'0 0.0
2018-Jul-15 02:25N 59°57' E 030°11'0 0.0
2018-Jul-15 01:58N 59°57' E 030°11'0 0.0
2018-Jul-15 01:25N 59°57' E 030°11'0 0.0
2018-Jul-15 00:58N 59°57' E 030°11'0 0.0
2018-Jul-15 00:30N 59°57' E 030°11'0 0.0
2018-Jul-15 00:00N 59°57' E 030°11'4256.9
2018-Jul-15 00:00N 59°54' E 030°06'4 7.4 060 / 41011.027.0 20.8 18.6
2018-Jul-14 23:30N 59°57' E 030°11'0 0.0
2018-Jul-14 23:00N 59°57' E 030°11'0 0.0
2018-Jul-14 22:28N 59°57' E 030°11'0 0.0
2018-Jul-14 22:00N 59°57' E 030°11'0 0.0
2018-Jul-14 21:28N 59°57' E 030°11'0 0.0
2018-Jul-14 21:00N 59°57' E 030°11'0 0.0
2018-Jul-14 20:27N 59°57' E 030°11'0 0.0
2018-Jul-14 19:54N 59°57' E 030°11'0 0.0
2018-Jul-14 19:29N 59°57' E 030°11'0 0.0
2018-Jul-14 18:55N 59°57' E 030°11'0 0.0
2018-Jul-14 18:28N 59°57' E 030°11'0 0.0
2018-Jul-14 18:00N 59°57' E 030°11'0 0.0
2018-Jul-14 17:29N 59°57' E 030°11'4 7.5
2018-Jul-14 17:00N 59°54' E 030°06'445.5
2018-Jul-14 16:55N 59°57' E 030°11'0 0.0
2018-Jul-14 16:29N 59°57' E 030°11'0 0.0
2018-Jul-14 15:57N 59°57' E 030°11'0 0.0
2018-Jul-14 15:30N 59°57' E 030°11'0 0.0
2018-Jul-14 14:58N 59°57' E 030°11'0 0.0
2018-Jul-14 14:30N 59°57' E 030°11'0 0.0
2018-Jul-14 13:30N 59°57' E 030°11'0 0.0
2018-Jul-14 13:00N 59°57' E 030°11'0 0.0
2018-Jul-14 12:29N 59°57' E 030°11'0 0.0
2018-Jul-14 11:58N 59°57' E 030°11'0 0.0
2018-Jul-14 11:30N 59°57' E 030°11'0 0.0
2018-Jul-14 10:59N 59°57' E 030°11'0 0.0
2018-Jul-14 10:30N 59°57' E 030°11'0 0.0
2018-Jul-14 10:00N 59°57' E 030°11'0 0.0
2018-Jul-14 09:26N 59°57' E 030°11'0 0.0
2018-Jul-14 09:00N 59°57' E 030°11'0 0.0
2018-Jul-14 08:24N 59°57' E 030°11'0 0.0
2018-Jul-14 07:59N 59°57' E 030°11'0 0.0
2018-Jul-14 07:28N 59°57' E 030°11'0 0.0
2018-Jul-14 07:00N 59°57' E 030°11'0 0.0
2018-Jul-14 06:28N 59°57' E 030°11'0 0.0
2018-Jul-14 05:53N 59°57' E 030°11'0 0.0
2018-Jul-14 05:28N 59°57' E 030°11'0 0.0
2018-Jul-14 05:01N 59°57' E 030°11'0 0.0
2018-Jul-14 04:28N 59°57' E 030°11'0 0.0
2018-Jul-14 03:56N 59°57' E 030°11'0 0.0
2018-Jul-14 03:30N 59°57' E 030°11'1 2.3
2018-Jul-14 03:00N 59°57' E 030°09'4 9.0
2018-Jul-14 02:30N 59°55' E 030°00'5 9.7
2018-Jul-14 02:01N 59°57' E 029°51'5 8.9
2018-Jul-14 01:26N 59°59' E 029°42'712.5
2018-Jul-14 00:54N 60°01' E 029°30'4 9.5
2018-Jul-14 00:30N 60°01' E 029°22'816.6
2018-Jul-14 00:00N 60°01' E 029°05'917.1
2018-Jul-13 23:30N 60°02' E 028°48'917.0
2018-Jul-13 23:00N 60°02' E 028°31'816.6
2018-Jul-13 22:30N 60°07' E 028°17'817.0
2018-Jul-13 22:00N 60°09' E 028°01'7519.7
2018-Jul-13 22:00N 60°06' E 027°48'5 9.7 100 / 131013.027.0 22.7 21.3
2018-Jul-13 21:30N 60°10' E 027°44'917.3
2018-Jul-13 21:00N 60°06' E 027°29'917.4
2018-Jul-13 20:30N 60°01' E 027°14'4 8.2
2018-Jul-13 20:00N 60°00' E 027°06'4549.2 020 / 10 22.3 20.6
2018-Jul-13 19:59N 59°58' E 026°58'817.3
2018-Jul-13 19:31N 59°59' E 026°42'917.2
2018-Jul-13 19:00N 59°58' E 026°25'917.0
2018-Jul-13 18:28N 59°55' E 026°07'817.2
2018-Jul-13 18:00N 59°53' E 025°52'817.1
2018-Jul-13 17:31N 59°51' E 025°36'916.9
2018-Jul-13 17:00N 59°49' E 025°19'816.8
2018-Jul-13 16:31N 59°47' E 025°03'816.2
2018-Jul-13 16:00N 59°43' E 024°50'816.2
2018-Jul-13 15:31N 59°36' E 024°41'815.3
2018-Jul-13 15:00N 59°28' E 024°46'1 1.3
2018-Jul-13 14:00N 59°27' E 024°46'0 0.0
2018-Jul-13 13:30N 59°27' E 024°46'0 0.0
2018-Jul-13 13:00N 59°27' E 024°46'0 0.0
2018-Jul-13 12:30N 59°27' E 024°46'0 0.0
2018-Jul-13 12:00N 59°27' E 024°46'0 0.0
2018-Jul-13 11:30N 59°27' E 024°46'0 0.0
2018-Jul-13 11:00N 59°27' E 024°46'0 0.0
2018-Jul-13 10:30N 59°27' E 024°46'0 0.0
2018-Jul-13 10:00N 59°27' E 024°46'4248.0
2018-Jul-13 10:00N 59°24' E 024°42'4 7.7 110 / 61014.027.0 21.4 15.4
2018-Jul-13 09:30N 59°27' E 024°46'0 0.0
2018-Jul-13 09:00N 59°27' E 024°46'0 0.0
2018-Jul-13 08:30N 59°27' E 024°46'0 0.0
2018-Jul-13 08:00N 59°27' E 024°46'0 0.0
2018-Jul-13 07:30N 59°27' E 024°46'0 0.3
2018-Jul-13 07:00N 59°27' E 024°46'2 4.0
2018-Jul-13 06:31N 59°29' E 024°45'611.1
2018-Jul-13 06:00N 59°30' E 024°34'715.0
2018-Jul-13 05:31N 59°30' E 024°19'915.9
2018-Jul-13 04:58N 59°29' E 024°03'816.1
2018-Jul-13 04:29N 59°29' E 023°47'816.3
2018-Jul-13 04:00N 59°28' E 023°32'816.2
2018-Jul-13 03:30N 59°28' E 023°16'816.1
2018-Jul-13 03:00N 59°27' E 023°00'816.4
2018-Jul-13 02:30N 59°25' E 022°44'915.2
2018-Jul-13 01:55N 59°21' E 022°28'616.1
2018-Jul-13 01:30N 59°20' E 022°16'816.5
2018-Jul-13 01:01N 59°20' E 021°60'816.3
2018-Jul-13 00:30N 59°19' E 021°44'917.3
2018-Jul-13 00:01N 59°16' E 021°28'917.6
2018-Jul-12 23:30N 59°14' E 021°11'917.7
2018-Jul-12 23:01N 59°11' E 020°55'6356.6
2018-Jul-12 23:00N 59°06' E 020°48'2814.2 350 / 201016.027.0 18.0 17.0
2018-Jul-12 21:00N 59°00' E 019°54'1121.2 030 / 14 17.5 18.2
2018-Jul-12 20:29N 58°57' E 019°34'817.3
2018-Jul-12 19:59N 58°54' E 019°18'817.1
2018-Jul-12 19:30N 58°51' E 019°03'917.0
2018-Jul-12 18:59N 58°49' E 018°47'1116.9
2018-Jul-12 18:21N 58°45' E 018°27'616.4
2018-Jul-12 18:00N 58°44' E 018°16'816.3
2018-Jul-12 17:31N 58°48' E 018°03'612.1
2018-Jul-12 17:00N 58°54' E 018°01'2 3.2
2018-Jul-12 16:29N 58°55' E 017°58'0 0.0
2018-Jul-12 15:59N 58°55' E 017°58'0 0.0
2018-Jul-12 15:29N 58°55' E 017°58'0 0.0
2018-Jul-12 14:59N 58°55' E 017°58'0 0.0
2018-Jul-12 14:29N 58°55' E 017°58'0 0.0
2018-Jul-12 14:00N 58°55' E 017°58'0 0.0
2018-Jul-12 13:29N 58°55' E 017°58'0 0.0
2018-Jul-12 13:00N 58°55' E 017°58'2124.3
2018-Jul-12 13:00N 58°54' E 017°54'2 4.1 070 / 71017.027.0 20.1 19.0
2018-Jul-12 12:30N 58°55' E 017°58'0 0.0
2018-Jul-12 12:00N 58°55' E 017°58'0 0.0
2018-Jul-12 11:30N 58°55' E 017°58'0 0.0
2018-Jul-12 11:00N 58°55' E 017°58'0 0.0
2018-Jul-12 10:30N 58°55' E 017°58'0 0.0
2018-Jul-12 10:00N 58°55' E 017°58'0 0.0
2018-Jul-12 09:30N 58°55' E 017°58'0 0.0
2018-Jul-12 09:00N 58°55' E 017°58'0 0.0
2018-Jul-12 08:30N 58°55' E 017°58'0 0.0
2018-Jul-12 08:00N 58°55' E 017°58'0 0.0
2018-Jul-12 07:30N 58°55' E 017°58'0 0.0
2018-Jul-12 07:00N 58°55' E 017°58'0 0.0
2018-Jul-12 06:30N 58°55' E 017°58'0 0.0
2018-Jul-12 06:00N 58°55' E 017°58'0 0.0
2018-Jul-12 05:30N 58°55' E 017°58'0 0.0
2018-Jul-12 05:00N 58°55' E 017°58'0 0.0
2018-Jul-12 04:30N 58°55' E 017°58'0 0.0
2018-Jul-12 04:00N 58°55' E 017°58'1 1.9
2018-Jul-12 03:30N 58°55' E 017°59'510.1
2018-Jul-12 03:00N 58°50' E 018°04'  

Dump ship's entire track history